createdAt,value
2017-03-17T00:00:07.120Z,0
2017-03-17T00:05:03.468Z,0
2017-03-17T00:09:59.970Z,0
2017-03-17T00:14:57.023Z,0
2017-03-17T00:19:53.474Z,0
2017-03-17T00:24:51.278Z,0
2017-03-17T00:29:49.728Z,0
2017-03-17T00:34:46.470Z,0
2017-03-17T00:39:43.680Z,0
2017-03-17T00:44:40.213Z,0
2017-03-17T00:49:37.257Z,0
2017-03-17T00:54:34.525Z,0
2017-03-17T00:59:30.999Z,0
2017-03-17T01:04:27.572Z,0
2017-03-17T01:09:23.917Z,0
2017-03-17T01:14:21.265Z,0
2017-03-17T01:19:17.692Z,0
2017-03-17T01:24:14.395Z,0
2017-03-17T01:29:11.143Z,0
2017-03-17T01:34:07.766Z,0
2017-03-17T01:39:04.394Z,0
2017-03-17T01:44:00.780Z,0
2017-03-17T01:48:58.438Z,0
2017-03-17T01:53:55.913Z,0
2017-03-17T01:58:52.522Z,0
2017-03-17T02:03:49.222Z,0
2017-03-17T02:08:46.122Z,0
2017-03-17T02:13:42.806Z,0
2017-03-17T02:18:39.174Z,0
2017-03-17T02:23:35.794Z,0
2017-03-17T02:28:32.281Z,0
2017-03-17T02:33:29.798Z,0
2017-03-17T02:38:26.456Z,0
2017-03-17T02:43:23.856Z,0
2017-03-17T02:48:20.110Z,0
2017-03-17T02:53:17.005Z,0
2017-03-17T02:58:13.716Z,0
2017-03-17T03:03:10.110Z,0
2017-03-17T03:08:06.532Z,0
2017-03-17T03:13:03.260Z,0
2017-03-17T03:17:59.662Z,0
2017-03-17T03:22:56.089Z,0
2017-03-17T03:27:52.547Z,0
2017-03-17T03:32:49.003Z,0
2017-03-17T03:37:45.371Z,0
2017-03-17T03:42:42.345Z,0
2017-03-17T03:47:38.423Z,0
2017-03-17T03:52:35.085Z,0
2017-03-17T03:57:31.636Z,0
2017-03-17T04:02:30.700Z,0
2017-03-17T04:07:26.435Z,0
2017-03-17T04:12:23.497Z,0
2017-03-17T04:17:19.665Z,0
2017-03-17T04:22:16.509Z,0
2017-03-17T04:27:13.094Z,0
2017-03-17T04:32:10.967Z,0
2017-03-17T04:37:07.024Z,0
2017-03-17T04:42:03.409Z,0
2017-03-17T04:47:00.365Z,0
2017-03-17T04:51:56.861Z,0
2017-03-17T04:56:53.334Z,0
2017-03-17T05:01:49.935Z,0
2017-03-17T05:06:47.267Z,0
2017-03-17T05:11:44.018Z,0
2017-03-17T05:16:40.917Z,0
2017-03-17T05:21:37.401Z,0
2017-03-17T05:26:33.764Z,0
2017-03-17T05:31:30.292Z,0
2017-03-17T05:36:26.654Z,0
2017-03-17T05:41:23.291Z,0
2017-03-17T05:46:19.823Z,5
2017-03-17T05:51:16.270Z,5
2017-03-17T05:56:13.004Z,5
2017-03-17T06:01:09.476Z,5
2017-03-17T06:06:05.813Z,5
2017-03-17T06:11:02.639Z,10
2017-03-17T06:15:58.718Z,10
2017-03-17T06:20:55.005Z,15
2017-03-17T06:25:51.534Z,20
2017-03-17T06:30:48.057Z,30
2017-03-17T06:35:44.680Z,30
2017-03-17T06:40:43.735Z,15
2017-03-17T06:45:39.519Z,20
2017-03-17T06:50:35.991Z,20
2017-03-17T06:55:32.494Z,15
2017-03-17T07:00:28.888Z,20
2017-03-17T07:05:26.388Z,15
2017-03-17T07:10:22.573Z,20
2017-03-17T07:15:19.130Z,20
2017-03-17T07:20:15.864Z,65
2017-03-17T07:25:12.769Z,55
2017-03-17T07:30:09.084Z,55
2017-03-17T07:35:05.692Z,70
2017-03-17T07:40:02.462Z,75
2017-03-17T07:44:59.125Z,120
2017-03-17T07:49:56.317Z,160
2017-03-17T07:54:53.354Z,185
2017-03-17T07:59:49.920Z,140
2017-03-17T08:04:46.460Z,150
2017-03-17T08:09:43.052Z,180
2017-03-17T08:14:40.896Z,180
2017-03-17T08:19:37.225Z,220
2017-03-17T08:24:33.985Z,220
2017-03-17T08:29:31.764Z,180
2017-03-17T08:34:29.096Z,155
2017-03-17T08:39:26.191Z,175
2017-03-17T08:44:23.082Z,195
2017-03-17T08:49:19.307Z,180
2017-03-17T08:54:16.082Z,340
2017-03-17T08:59:13.657Z,310
2017-03-17T09:04:10.475Z,260
2017-03-17T09:09:07.968Z,205
2017-03-17T09:14:04.664Z,215
2017-03-17T09:19:00.719Z,185
2017-03-17T09:23:57.227Z,270
2017-03-17T09:28:53.657Z,265
2017-03-17T09:33:50.569Z,180
2017-03-17T09:38:47.377Z,235
2017-03-17T09:43:44.251Z,365
2017-03-17T09:48:41.592Z,330
2017-03-17T09:53:38.716Z,395
2017-03-17T09:58:36.324Z,460
2017-03-17T10:03:33.563Z,375
2017-03-17T10:08:30.495Z,385
2017-03-17T10:13:27.391Z,390
2017-03-17T10:18:23.935Z,460
2017-03-17T10:23:20.969Z,405
2017-03-17T10:28:17.445Z,460
2017-03-17T10:33:14.058Z,330
2017-03-17T10:38:11.082Z,275
2017-03-17T10:43:07.071Z,255
2017-03-17T10:48:03.375Z,245
2017-03-17T10:52:59.844Z,245
2017-03-17T10:57:56.153Z,195
2017-03-17T11:02:52.768Z,210
2017-03-17T11:07:48.906Z,220
2017-03-17T11:12:45.616Z,205
2017-03-17T11:17:42.361Z,220
2017-03-17T11:22:38.820Z,185
2017-03-17T11:27:35.538Z,190
2017-03-17T11:32:32.273Z,165
2017-03-17T11:37:28.655Z,220
2017-03-17T11:42:25.818Z,245
2017-03-17T11:47:23.551Z,200
2017-03-17T11:52:20.438Z,210
2017-03-17T11:57:17.294Z,275
2017-03-17T12:02:14.050Z,260
2017-03-17T12:07:10.696Z,265
2017-03-17T12:12:07.450Z,290
2017-03-17T12:17:03.954Z,235
2017-03-17T12:22:00.314Z,245
2017-03-17T12:26:58.014Z,250
2017-03-17T12:31:54.526Z,300
2017-03-17T12:36:51.277Z,395
2017-03-17T12:41:48.451Z,445
2017-03-17T12:46:45.279Z,325
2017-03-17T12:51:41.550Z,185
2017-03-17T12:56:37.730Z,190
2017-03-17T13:01:34.937Z,260
2017-03-17T13:06:31.499Z,235
2017-03-17T13:11:28.255Z,390
2017-03-17T13:16:25.034Z,295
2017-03-17T13:21:21.940Z,330
2017-03-17T13:26:20.311Z,260
2017-03-17T13:31:16.408Z,165
2017-03-17T13:36:12.526Z,320
2017-03-17T13:41:09.509Z,335
2017-03-17T13:46:07.028Z,370
2017-03-17T13:51:03.457Z,305
2017-03-17T13:56:01.905Z,255
2017-03-17T14:00:58.895Z,285
2017-03-17T14:05:55.727Z,305
2017-03-17T14:10:52.343Z,330
2017-03-17T14:15:50.525Z,540
2017-03-17T14:20:46.869Z,390
2017-03-17T14:25:43.564Z,575
2017-03-17T14:30:40.667Z,705
2017-03-17T14:35:38.318Z,255
2017-03-17T14:40:34.554Z,390
2017-03-17T14:45:31.042Z,255
2017-03-17T14:50:27.758Z,300
2017-03-17T14:55:23.994Z,270
2017-03-17T15:00:20.389Z,240
2017-03-17T15:05:16.974Z,185
2017-03-17T15:10:13.655Z,205
2017-03-17T15:15:10.150Z,195
2017-03-17T15:20:07.868Z,200
2017-03-17T15:25:04.274Z,165
2017-03-17T15:30:00.587Z,160
2017-03-17T15:34:58.129Z,140
2017-03-17T15:39:53.990Z,135
2017-03-17T15:44:50.584Z,140
2017-03-17T15:49:46.820Z,125
2017-03-17T15:54:43.026Z,100
2017-03-17T15:59:39.740Z,90
2017-03-17T16:04:36.511Z,80
2017-03-17T16:09:33.147Z,80
2017-03-17T16:14:29.921Z,90
2017-03-17T16:19:26.728Z,110
2017-03-17T16:24:23.054Z,90
2017-03-17T16:29:19.297Z,95
2017-03-17T16:34:15.976Z,80
2017-03-17T16:39:12.448Z,70
2017-03-17T16:44:08.936Z,55
2017-03-17T16:49:06.281Z,40
2017-03-17T16:54:02.605Z,45
2017-03-17T16:58:59.090Z,40
2017-03-17T17:03:55.554Z,25
2017-03-17T17:08:51.739Z,20
2017-03-17T17:13:48.325Z,15
2017-03-17T17:18:45.006Z,10
2017-03-17T17:23:41.422Z,10
2017-03-17T17:28:37.661Z,5
2017-03-17T17:33:34.703Z,5
2017-03-17T17:38:31.036Z,0
2017-03-17T17:43:27.452Z,0
2017-03-17T17:48:23.663Z,0
2017-03-17T17:53:22.566Z,0
2017-03-17T17:58:18.265Z,0
2017-03-17T18:03:14.952Z,0
2017-03-17T18:08:12.825Z,0
2017-03-17T18:13:09.092Z,0
2017-03-17T18:18:05.431Z,0
2017-03-17T18:23:01.652Z,0
2017-03-17T18:27:58.178Z,0
2017-03-17T18:32:54.646Z,0
2017-03-17T18:37:50.951Z,0
2017-03-17T18:42:47.398Z,0
2017-03-17T18:47:43.480Z,0
2017-03-17T18:52:41.549Z,0
2017-03-17T18:57:37.595Z,0
2017-03-17T19:02:34.184Z,0
2017-03-17T19:07:30.875Z,0
2017-03-17T19:12:27.309Z,0
2017-03-17T19:17:23.814Z,0
2017-03-17T19:22:20.210Z,0
2017-03-17T19:27:17.322Z,0
2017-03-17T19:32:13.689Z,0
2017-03-17T19:37:10.097Z,0
2017-03-17T19:42:06.733Z,0
2017-03-17T19:47:03.116Z,0
2017-03-17T19:51:59.500Z,0
2017-03-17T19:56:56.124Z,0
2017-03-17T20:01:52.548Z,0
2017-03-17T20:06:49.277Z,0
2017-03-17T20:11:45.854Z,0
2017-03-17T20:16:42.189Z,0
2017-03-17T20:21:38.225Z,0
2017-03-17T20:26:34.791Z,0
2017-03-17T20:31:31.915Z,0
2017-03-17T20:36:28.537Z,0
2017-03-17T20:41:25.045Z,0
2017-03-17T20:46:21.550Z,0
2017-03-17T20:51:18.002Z,0
2017-03-17T20:56:14.779Z,0
2017-03-17T21:01:11.072Z,0
2017-03-17T21:06:08.552Z,0
2017-03-17T21:11:05.076Z,0
2017-03-17T21:16:01.636Z,0
2017-03-17T21:20:58.269Z,0
2017-03-17T21:25:54.594Z,0
2017-03-17T21:30:51.391Z,0
2017-03-17T21:35:48.231Z,0
2017-03-17T21:40:44.662Z,0
2017-03-17T21:45:41.208Z,0
2017-03-17T21:50:37.704Z,0
2017-03-17T21:55:35.014Z,0
2017-03-17T22:00:31.661Z,0
2017-03-17T22:05:27.863Z,0
2017-03-17T22:10:24.141Z,0
2017-03-17T22:15:21.437Z,0
2017-03-17T22:20:17.625Z,0
2017-03-17T22:25:13.976Z,0
2017-03-17T22:30:10.628Z,0
2017-03-17T22:35:07.053Z,0
2017-03-17T22:40:03.464Z,0
2017-03-17T22:44:59.890Z,0
2017-03-17T22:49:56.315Z,0
2017-03-17T22:54:54.060Z,0
2017-03-17T22:59:51.186Z,0
2017-03-17T23:04:47.494Z,0
2017-03-17T23:09:43.896Z,0
2017-03-17T23:14:39.748Z,0
2017-03-17T23:19:36.378Z,0
2017-03-17T23:24:33.558Z,0
2017-03-17T23:29:30.103Z,0
2017-03-17T23:34:26.655Z,0
2017-03-17T23:39:24.210Z,0
2017-03-17T23:44:20.168Z,0
2017-03-17T23:49:17.471Z,0
2017-03-17T23:54:14.757Z,0
2017-03-17T23:59:11.099Z,0
